createdAt,value
2022-10-11T00:00:37.965Z,12.40
2022-10-11T00:03:06.032Z,12.40
2022-10-11T00:05:35.194Z,12.40
2022-10-11T00:08:09.548Z,12.40
2022-10-11T00:10:38.008Z,12.40
2022-10-11T00:13:07.053Z,12.40
2022-10-11T00:15:35.212Z,12.40
2022-10-11T00:18:05.524Z,12.40
2022-10-11T00:20:33.566Z,12.40
2022-10-11T00:23:01.752Z,12.50
2022-10-11T00:25:30.014Z,12.40
2022-10-11T00:27:58.039Z,12.40
2022-10-11T00:30:26.061Z,12.40
2022-10-11T00:32:54.118Z,12.40
2022-10-11T00:35:22.067Z,12.40
2022-10-11T00:37:50.713Z,12.30
2022-10-11T00:40:20.768Z,12.30
2022-10-11T00:42:50.347Z,12.30
2022-10-11T00:45:26.324Z,12.30
2022-10-11T00:48:10.122Z,12.30
2022-10-11T00:50:38.166Z,12.30
2022-10-11T00:53:11.361Z,12.30
2022-10-11T00:55:46.437Z,12.30
2022-10-11T00:58:16.742Z,12.20
2022-10-11T01:00:45.472Z,12.20
2022-10-11T01:03:13.504Z,12.20
2022-10-11T01:05:41.927Z,12.20
2022-10-11T01:08:09.839Z,12.20
2022-10-11T01:10:37.932Z,12.20
2022-10-11T01:13:46.539Z,12.30
2022-10-11T01:16:47.438Z,12.20
2022-10-11T01:19:52.585Z,12.20
2022-10-11T01:22:56.922Z,12.20
2022-10-11T01:25:45.745Z,12.20
2022-10-11T01:29:02.925Z,12.20
2022-10-11T01:32:16.985Z,12.20
2022-10-11T01:35:10.134Z,12.20
2022-10-11T01:37:41.556Z,12.20
2022-10-11T01:40:29.109Z,12.20
2022-10-11T01:42:57.805Z,12.20
2022-10-11T01:45:25.795Z,12.10
2022-10-11T01:48:09.428Z,12.10
2022-10-11T01:50:47.103Z,12.10
2022-10-11T01:53:55.826Z,12.10
2022-10-11T01:56:54.925Z,12.10
2022-10-11T01:59:50.192Z,12.10
2022-10-11T02:02:54.419Z,12.20
2022-10-11T02:05:48.479Z,12.10
2022-10-11T02:08:24.564Z,12.10
2022-10-11T02:11:16.223Z,12.10
2022-10-11T02:14:10.786Z,12.10
2022-10-11T02:16:43.629Z,12.00
2022-10-11T02:19:14.715Z,12.00
2022-10-11T02:21:47.672Z,12.00
2022-10-11T02:24:22.195Z,12.00
2022-10-11T02:26:55.549Z,12.00
2022-10-11T02:29:27.813Z,12.00
2022-10-11T02:31:59.174Z,12.00
2022-10-11T02:34:55.723Z,11.90
2022-10-11T02:37:40.247Z,11.90
2022-10-11T02:40:32.386Z,11.80
2022-10-11T02:43:17.489Z,11.80
2022-10-11T02:45:48.791Z,11.90
2022-10-11T02:48:18.134Z,11.90
2022-10-11T02:50:47.296Z,11.80
2022-10-11T02:53:15.577Z,11.80
2022-10-11T02:55:43.960Z,11.80
2022-10-11T02:58:12.141Z,11.80
2022-10-11T03:00:40.139Z,11.90
2022-10-11T03:03:09.119Z,11.90
2022-10-11T03:05:40.730Z,11.90
2022-10-11T03:08:14.094Z,11.90
2022-10-11T03:10:42.834Z,11.90
2022-10-11T03:13:12.878Z,11.90
2022-10-11T03:15:47.913Z,11.90
2022-10-11T03:18:16.073Z,11.80
2022-10-11T03:20:44.478Z,11.80
2022-10-11T03:23:13.218Z,11.80
2022-10-11T03:25:41.688Z,11.80
2022-10-11T03:28:09.829Z,11.80
2022-10-11T03:30:37.825Z,11.80
2022-10-11T03:33:06.265Z,11.80
2022-10-11T03:35:35.918Z,11.80
2022-10-11T03:38:04.130Z,11.80
2022-10-11T03:40:35.959Z,11.70
2022-10-11T03:43:04.941Z,11.80
2022-10-11T03:45:31.925Z,11.80
2022-10-11T03:48:00.171Z,11.80
2022-10-11T03:50:28.803Z,11.80
2022-10-11T03:52:57.402Z,11.80
2022-10-11T03:55:25.504Z,11.70
2022-10-11T03:57:53.987Z,11.80
2022-10-11T04:00:22.750Z,11.80
2022-10-11T04:02:50.836Z,11.80
2022-10-11T04:05:19.338Z,11.70
2022-10-11T04:07:47.647Z,11.70
2022-10-11T04:10:17.885Z,11.70
2022-10-11T04:12:49.267Z,11.70
2022-10-11T04:15:17.473Z,11.70
2022-10-11T04:17:45.526Z,11.60
2022-10-11T04:20:13.574Z,11.60
2022-10-11T04:22:42.078Z,11.70
2022-10-11T04:25:10.424Z,11.70
2022-10-11T04:27:38.685Z,11.70
2022-10-11T04:30:07.371Z,11.70
2022-10-11T04:32:35.776Z,11.70
2022-10-11T04:35:04.805Z,11.80
2022-10-11T04:37:33.232Z,11.80
2022-10-11T04:40:02.315Z,11.80
2022-10-11T04:42:31.102Z,11.70
2022-10-11T04:45:01.126Z,11.60
2022-10-11T04:47:30.128Z,11.60
2022-10-11T04:49:58.219Z,11.50
2022-10-11T04:52:26.405Z,11.40
2022-10-11T04:54:54.425Z,11.50
2022-10-11T04:57:24.546Z,11.40
2022-10-11T04:59:53.253Z,11.50
2022-10-11T05:02:24.244Z,11.50
2022-10-11T05:04:51.830Z,11.60
2022-10-11T05:07:21.495Z,11.60
2022-10-11T05:09:52.196Z,11.70
2022-10-11T05:12:20.031Z,11.70
2022-10-11T05:14:47.431Z,11.60
2022-10-11T05:17:15.366Z,11.50
2022-10-11T05:19:42.394Z,11.50
2022-10-11T05:22:10.995Z,11.50
2022-10-11T05:24:38.588Z,11.50
2022-10-11T05:27:07.073Z,11.50
2022-10-11T05:29:34.537Z,11.60
2022-10-11T05:32:02.584Z,11.70
2022-10-11T05:34:29.654Z,11.70
2022-10-11T05:36:57.717Z,11.70
2022-10-11T05:39:25.383Z,11.80
2022-10-11T05:41:53.925Z,11.80
2022-10-11T05:44:21.456Z,11.90
2022-10-11T05:46:51.878Z,11.90
2022-10-11T05:49:20.471Z,12.00
2022-10-11T05:51:48.687Z,12.00
2022-10-11T05:54:16.413Z,12.00
2022-10-11T05:56:44.844Z,12.10
2022-10-11T05:59:12.463Z,12.10
2022-10-11T06:01:40.599Z,12.00
2022-10-11T06:04:08.335Z,11.90
2022-10-11T06:06:36.383Z,11.80
2022-10-11T06:09:04.939Z,11.70
2022-10-11T06:11:33.160Z,11.60
2022-10-11T06:14:00.564Z,11.60
2022-10-11T06:16:28.688Z,11.70
2022-10-11T06:18:59.181Z,11.80
2022-10-11T06:21:27.315Z,11.80
2022-10-11T06:23:59.927Z,11.90
2022-10-11T06:26:29.948Z,11.90
2022-10-11T06:28:58.846Z,12.00
2022-10-11T06:31:26.849Z,12.00
2022-10-11T06:33:55.476Z,12.10
2022-10-11T06:36:23.627Z,12.20
2022-10-11T06:38:55.086Z,12.30
2022-10-11T06:41:28.581Z,12.40
2022-10-11T06:43:56.415Z,12.40
2022-10-11T06:46:25.950Z,12.50
2022-10-11T06:48:56.302Z,12.50
2022-10-11T06:51:24.385Z,12.60
2022-10-11T06:53:55.298Z,12.70
2022-10-11T06:56:24.222Z,12.70
2022-10-11T06:58:52.805Z,12.80
2022-10-11T07:01:23.492Z,12.80
2022-10-11T07:03:53.559Z,12.80
2022-10-11T07:06:24.078Z,12.70
2022-10-11T07:08:52.767Z,12.90
2022-10-11T07:11:22.062Z,12.90
2022-10-11T07:13:57.366Z,13.00
2022-10-11T07:16:26.705Z,13.20
2022-10-11T07:19:00.187Z,13.60
2022-10-11T07:21:30.099Z,13.90
2022-10-11T07:23:58.302Z,14.10
2022-10-11T07:26:27.402Z,14.10
2022-10-11T07:28:55.486Z,14.10
2022-10-11T07:31:24.009Z,14.20
2022-10-11T07:33:53.202Z,14.30
2022-10-11T07:36:23.396Z,14.40
2022-10-11T07:38:50.835Z,14.40
2022-10-11T07:41:19.048Z,14.30
2022-10-11T07:43:47.953Z,14.30
2022-10-11T07:46:17.468Z,14.20
2022-10-11T07:48:44.549Z,14.20
2022-10-11T07:51:14.390Z,14.30
2022-10-11T07:53:43.878Z,14.30
2022-10-11T07:56:15.115Z,14.40
2022-10-11T07:58:43.346Z,14.50
2022-10-11T08:01:11.777Z,14.70
2022-10-11T08:03:39.622Z,14.70
2022-10-11T08:06:09.427Z,14.80
2022-10-11T08:08:38.241Z,14.70
2022-10-11T08:11:05.580Z,14.80
2022-10-11T08:13:34.567Z,14.90
2022-10-11T08:16:10.332Z,14.90
2022-10-11T08:18:37.611Z,14.80
2022-10-11T08:21:13.371Z,14.70
2022-10-11T08:23:40.647Z,14.70
2022-10-11T08:26:09.749Z,14.60
2022-10-11T08:28:37.802Z,14.70
2022-10-11T08:31:06.595Z,14.80
2022-10-11T08:33:34.789Z,15.00
2022-10-11T08:36:06.049Z,15.20
2022-10-11T08:38:36.350Z,15.10
2022-10-11T08:41:29.469Z,15.40
2022-10-11T08:44:14.332Z,15.80
2022-10-11T08:46:46.914Z,16.00
2022-10-11T08:49:15.778Z,16.20
2022-10-11T08:51:50.475Z,16.50
2022-10-11T08:54:44.803Z,16.40
2022-10-11T08:57:22.057Z,16.50
2022-10-11T08:59:51.231Z,16.40
2022-10-11T09:03:07.957Z,16.40
2022-10-11T09:06:03.691Z,16.60
2022-10-11T09:09:16.276Z,16.60
2022-10-11T09:11:49.277Z,16.60
2022-10-11T09:14:24.073Z,16.80
2022-10-11T09:17:06.989Z,16.70
2022-10-11T09:20:03.122Z,16.60
2022-10-11T09:23:04.790Z,16.70
2022-10-11T09:25:44.328Z,16.90
2022-10-11T09:28:49.198Z,16.90
2022-10-11T09:31:17.835Z,16.80
2022-10-11T09:33:50.988Z,16.80
2022-10-11T09:36:40.687Z,16.40
2022-10-11T09:39:36.931Z,16.10
2022-10-11T09:42:07.790Z,16.20
2022-10-11T09:44:45.248Z,16.60
2022-10-11T09:47:23.071Z,16.70
2022-10-11T09:49:58.497Z,16.80
2022-10-11T09:52:26.601Z,16.60
2022-10-11T09:55:00.918Z,16.60
2022-10-11T09:57:33.074Z,16.60
2022-10-11T10:00:05.927Z,16.60
2022-10-11T10:02:59.691Z,16.60
2022-10-11T10:05:32.121Z,16.50
2022-10-11T10:08:04.745Z,16.40
2022-10-11T10:10:43.929Z,16.60
2022-10-11T10:13:30.751Z,16.90
2022-10-11T10:15:59.241Z,17.50
2022-10-11T10:18:42.289Z,17.70
2022-10-11T10:21:14.447Z,18.20
2022-10-11T10:23:43.020Z,18.90
2022-10-11T10:26:13.291Z,18.90
2022-10-11T10:28:59.900Z,19.20
2022-10-11T10:35:07.765Z,18.70
2022-10-11T10:37:50.160Z,18.70
2022-10-11T10:40:25.724Z,18.30
2022-10-11T10:42:54.089Z,17.90
2022-10-11T10:45:33.869Z,17.40
2022-10-11T10:48:12.692Z,16.90
2022-10-11T10:50:54.808Z,16.80
2022-10-11T10:53:32.900Z,16.70
2022-10-11T10:56:19.352Z,16.70
2022-10-11T10:59:11.495Z,16.90
2022-10-11T11:01:52.961Z,16.80
2022-10-11T11:04:35.407Z,16.90
2022-10-11T11:07:40.688Z,17.20
2022-10-11T11:10:21.402Z,17.30
2022-10-11T11:13:02.137Z,17.70
2022-10-11T11:16:10.479Z,17.70
2022-10-11T11:19:00.840Z,17.50
2022-10-11T11:21:54.114Z,17.40
2022-10-11T11:24:44.886Z,17.70
2022-10-11T11:27:32.901Z,17.60
2022-10-11T11:30:06.950Z,18.00
2022-10-11T11:32:45.530Z,18.50
2022-10-11T11:35:39.097Z,18.90
2022-10-11T11:38:32.039Z,19.30
2022-10-11T11:41:02.691Z,19.40
2022-10-11T11:43:59.926Z,19.40
2022-10-11T11:46:35.693Z,19.70
2022-10-11T11:49:12.125Z,20.00
2022-10-11T11:51:45.316Z,20.50
2022-10-11T11:54:29.001Z,20.90
2022-10-11T11:57:07.502Z,21.80
2022-10-11T12:00:06.239Z,23.00
2022-10-11T12:03:11.376Z,23.70
2022-10-11T12:05:39.184Z,24.10
2022-10-11T12:08:27.938Z,24.10
2022-10-11T12:10:59.225Z,24.10
2022-10-11T12:13:39.686Z,23.90
2022-10-11T12:16:14.773Z,22.90
2022-10-11T12:18:57.711Z,22.30
2022-10-11T12:21:37.267Z,21.80
2022-10-11T12:24:21.341Z,21.70
2022-10-11T12:26:54.695Z,22.20
2022-10-11T12:29:29.033Z,23.40
2022-10-11T12:32:02.316Z,24.10
2022-10-11T12:34:42.176Z,23.70
2022-10-11T12:37:22.034Z,23.40
2022-10-11T12:39:55.399Z,23.30
2022-10-11T12:42:34.362Z,22.80
2022-10-11T12:45:12.372Z,21.70
2022-10-11T12:47:53.193Z,20.70
2022-10-11T12:50:43.228Z,20.10
2022-10-11T12:53:29.191Z,19.50
2022-10-11T12:56:06.110Z,19.10
2022-10-11T12:58:41.608Z,19.40
2022-10-11T13:01:19.309Z,20.40
2022-10-11T13:04:17.037Z,20.80
2022-10-11T13:06:50.276Z,21.30
2022-10-11T13:09:45.297Z,21.30
2022-10-11T13:12:20.143Z,22.30
2022-10-11T13:15:07.170Z,22.80
2022-10-11T13:17:38.692Z,23.10
2022-10-11T13:20:25.390Z,23.40
2022-10-11T13:22:55.153Z,23.00
2022-10-11T13:25:29.207Z,22.90
2022-10-11T13:27:59.485Z,22.60
2022-10-11T13:30:35.603Z,22.40
2022-10-11T13:33:08.562Z,22.30
2022-10-11T13:35:38.193Z,22.70
2022-10-11T13:38:09.234Z,23.30
2022-10-11T13:40:38.202Z,23.20
2022-10-11T13:43:07.806Z,22.10
2022-10-11T13:45:37.011Z,21.20
2022-10-11T13:48:13.170Z,20.40
2022-10-11T13:50:46.117Z,19.90
2022-10-11T13:53:13.702Z,19.60
2022-10-11T13:56:03.597Z,19.40
2022-10-11T13:58:38.707Z,19.70
2022-10-11T14:01:17.316Z,19.90
2022-10-11T14:03:48.660Z,19.70
2022-10-11T14:06:16.605Z,20.00
2022-10-11T14:08:45.944Z,20.70
2022-10-11T14:11:14.723Z,21.10
2022-10-11T14:13:43.689Z,20.80
2022-10-11T14:16:30.481Z,20.00
2022-10-11T14:18:58.841Z,19.30
2022-10-11T14:21:46.520Z,18.80
2022-10-11T14:24:14.566Z,18.40
2022-10-11T14:26:54.592Z,18.10
2022-10-11T14:29:36.556Z,17.90
2022-10-11T14:32:14.104Z,17.30
2022-10-11T14:34:44.828Z,17.30
2022-10-11T14:37:16.404Z,17.10
2022-10-11T14:39:45.989Z,17.10
2022-10-11T14:42:15.526Z,17.10
2022-10-11T14:44:44.226Z,17.10
2022-10-11T14:47:17.779Z,17.00
2022-10-11T14:49:45.737Z,17.00
2022-10-11T14:52:14.086Z,16.90
2022-10-11T14:54:42.241Z,17.00
2022-10-11T14:57:11.862Z,16.90
2022-10-11T14:59:40.306Z,16.80
2022-10-11T15:02:11.040Z,16.50
2022-10-11T15:04:39.479Z,16.30
2022-10-11T15:07:06.991Z,16.20
2022-10-11T15:09:34.892Z,15.90
2022-10-11T15:12:05.130Z,15.80
2022-10-11T15:14:33.069Z,15.70
2022-10-11T15:17:00.811Z,15.60
2022-10-11T15:19:29.371Z,15.60
2022-10-11T15:21:57.838Z,15.60
2022-10-11T15:24:25.850Z,15.60
2022-10-11T15:26:52.953Z,15.50
2022-10-11T15:29:24.002Z,15.40
2022-10-11T15:31:50.795Z,15.30
2022-10-11T15:34:19.337Z,15.20
2022-10-11T15:36:47.489Z,15.20
2022-10-11T15:39:25.611Z,15.20
2022-10-11T15:41:54.271Z,15.10
2022-10-11T15:44:21.887Z,15.00
2022-10-11T15:46:50.103Z,15.00
2022-10-11T15:49:18.323Z,14.90
2022-10-11T15:51:46.915Z,14.80
2022-10-11T15:54:13.888Z,14.80
2022-10-11T15:56:41.850Z,14.70
2022-10-11T15:59:11.587Z,14.70
2022-10-11T16:01:39.820Z,14.60
2022-10-11T16:04:06.936Z,14.60
2022-10-11T16:06:33.875Z,14.50
2022-10-11T16:09:02.201Z,14.40
2022-10-11T16:11:30.025Z,14.30
2022-10-11T16:13:57.937Z,14.30
2022-10-11T16:16:26.056Z,14.30
2022-10-11T16:18:54.391Z,14.40
2022-10-11T16:21:24.116Z,14.30
2022-10-11T16:23:51.892Z,14.30
2022-10-11T16:26:20.065Z,14.30
2022-10-11T16:28:47.974Z,14.20
2022-10-11T16:31:19.800Z,14.10
2022-10-11T16:33:47.784Z,14.10
2022-10-11T16:36:31.851Z,14.00
2022-10-11T16:39:00.287Z,14.00
2022-10-11T16:41:31.647Z,14.00
2022-10-11T16:43:58.966Z,13.90
2022-10-11T16:46:27.006Z,13.90
2022-10-11T16:48:58.274Z,13.80
2022-10-11T16:51:26.636Z,13.80
2022-10-11T16:53:53.878Z,13.70
2022-10-11T16:56:24.035Z,13.80
2022-10-11T16:58:52.639Z,13.80
2022-10-11T17:01:20.253Z,13.80
2022-10-11T17:03:49.799Z,13.80
2022-10-11T17:06:17.355Z,13.80
2022-10-11T17:08:45.160Z,13.80
2022-10-11T17:11:11.972Z,13.80
2022-10-11T17:13:38.914Z,13.70
2022-10-11T17:16:07.866Z,13.70
2022-10-11T17:18:35.997Z,13.60
2022-10-11T17:21:11.343Z,13.60
2022-10-11T17:23:40.623Z,13.60
2022-10-11T17:26:11.656Z,13.60
2022-10-11T17:28:40.509Z,13.60
2022-10-11T17:31:09.486Z,13.60
2022-10-11T17:33:38.341Z,13.60
2022-10-11T17:36:30.679Z,13.60
2022-10-11T17:38:59.250Z,13.60
2022-10-11T17:41:31.785Z,13.60
2022-10-11T17:44:02.915Z,13.50
2022-10-11T17:46:36.697Z,13.50
2022-10-11T17:49:06.463Z,13.50
2022-10-11T17:51:36.216Z,13.50
2022-10-11T17:54:04.534Z,13.40
2022-10-11T17:56:37.629Z,13.30
2022-10-11T17:59:06.345Z,13.20
2022-10-11T18:01:34.925Z,13.10
2022-10-11T18:04:04.988Z,13.10
2022-10-11T18:06:38.967Z,13.10
2022-10-11T18:09:06.194Z,12.90
2022-10-11T18:11:34.106Z,13.00
2022-10-11T18:14:02.298Z,13.00
2022-10-11T18:16:31.942Z,13.00
2022-10-11T18:19:03.765Z,12.90
2022-10-11T18:21:34.662Z,13.00
2022-10-11T18:24:06.503Z,13.00
2022-10-11T18:26:34.812Z,13.10
2022-10-11T18:29:02.928Z,13.00
2022-10-11T18:31:33.691Z,12.90
2022-10-11T18:34:05.322Z,13.00
2022-10-11T18:36:33.693Z,12.90
2022-10-11T18:39:05.572Z,12.80
2022-10-11T18:41:35.234Z,12.70
2022-10-11T18:44:05.990Z,12.70
2022-10-11T18:46:34.434Z,12.60
2022-10-11T18:49:03.228Z,12.60
2022-10-11T18:51:33.566Z,12.60
2022-10-11T18:54:02.830Z,12.60
2022-10-11T18:56:31.415Z,12.50
2022-10-11T18:58:59.886Z,12.40
2022-10-11T19:01:31.201Z,12.40
2022-10-11T19:04:00.664Z,12.40
2022-10-11T19:06:31.092Z,12.40
2022-10-11T19:09:09.081Z,12.30
2022-10-11T19:11:36.739Z,12.30
2022-10-11T19:14:07.387Z,12.30
2022-10-11T19:16:38.825Z,12.30
2022-10-11T19:19:06.922Z,12.30
2022-10-11T19:21:37.072Z,12.20
2022-10-11T19:24:05.438Z,12.20
2022-10-11T19:26:39.281Z,12.20
2022-10-11T19:29:15.670Z,12.20
2022-10-11T19:31:46.491Z,12.20
2022-10-11T19:34:14.302Z,12.30
2022-10-11T19:36:42.809Z,12.30
2022-10-11T19:39:14.951Z,12.40
2022-10-11T19:41:44.424Z,12.40
2022-10-11T19:44:13.859Z,12.50
2022-10-11T19:46:51.478Z,12.50
2022-10-11T19:49:24.699Z,12.40
2022-10-11T19:51:53.854Z,12.40
2022-10-11T19:54:21.047Z,12.30
2022-10-11T19:56:49.714Z,12.30
2022-10-11T19:59:17.365Z,12.30
2022-10-11T20:01:51.034Z,12.40
2022-10-11T20:07:09.094Z,12.30
2022-10-11T20:09:37.598Z,12.30
2022-10-11T20:12:05.583Z,12.30
2022-10-11T20:14:33.351Z,12.40
2022-10-11T20:17:03.065Z,12.40
2022-10-11T20:19:31.235Z,12.40
2022-10-11T20:22:00.787Z,12.40
2022-10-11T20:24:32.674Z,12.30
2022-10-11T20:27:04.842Z,12.30
2022-10-11T20:29:32.074Z,12.30
2022-10-11T20:31:59.157Z,12.30
2022-10-11T20:34:27.717Z,12.30
2022-10-11T20:36:55.059Z,12.30
2022-10-11T20:39:24.035Z,12.30
2022-10-11T20:41:51.133Z,12.40
2022-10-11T20:44:19.275Z,12.40
2022-10-11T20:46:47.494Z,12.40
2022-10-11T20:49:16.084Z,12.20
2022-10-11T20:51:44.126Z,12.30
2022-10-11T20:54:12.362Z,12.20
2022-10-11T20:56:40.741Z,12.20
2022-10-11T20:59:08.425Z,12.20
2022-10-11T21:01:40.251Z,12.20
2022-10-11T21:04:14.725Z,12.10
2022-10-11T21:06:42.789Z,12.20
2022-10-11T21:09:12.567Z,12.20
2022-10-11T21:11:43.710Z,12.20
2022-10-11T21:14:12.053Z,12.20
2022-10-11T21:16:40.291Z,12.20
2022-10-11T21:19:12.091Z,12.10
2022-10-11T21:21:40.321Z,12.10
2022-10-11T21:24:08.706Z,12.00
2022-10-11T21:26:36.685Z,12.00
2022-10-11T21:29:04.233Z,12.10
2022-10-11T21:31:34.321Z,12.10
2022-10-11T21:34:05.119Z,12.10
2022-10-11T21:36:32.130Z,12.10
2022-10-11T21:38:59.268Z,12.10
2022-10-11T21:41:29.917Z,12.20
2022-10-11T21:43:57.778Z,12.20
2022-10-11T21:47:04.933Z,12.20
2022-10-11T21:49:18.569Z,12.20
2022-10-11T21:51:46.718Z,12.20
2022-10-11T21:54:14.283Z,12.20
2022-10-11T21:56:44.837Z,12.10
2022-10-11T21:59:12.760Z,11.90
2022-10-11T22:01:42.007Z,11.80
2022-10-11T22:04:11.891Z,11.80
2022-10-11T22:06:40.362Z,11.60
2022-10-11T22:09:08.960Z,11.60
2022-10-11T22:11:37.747Z,11.50
2022-10-11T22:14:05.418Z,11.40
2022-10-11T22:16:35.294Z,11.30
2022-10-11T22:19:03.540Z,11.20
2022-10-11T22:21:32.345Z,11.20
2022-10-11T22:24:01.876Z,11.20
2022-10-11T22:26:31.629Z,11.20
2022-10-11T22:29:00.540Z,11.20
2022-10-11T22:31:29.711Z,11.10
2022-10-11T22:33:59.629Z,11.00
2022-10-11T22:36:30.744Z,11.00
2022-10-11T22:39:01.651Z,11.00
2022-10-11T22:41:29.935Z,10.90
2022-10-11T22:43:58.127Z,10.80
2022-10-11T22:46:26.390Z,10.70
2022-10-11T22:48:54.143Z,10.70
2022-10-11T22:51:22.574Z,10.80
2022-10-11T22:53:50.068Z,10.90
2022-10-11T22:56:18.165Z,11.10
2022-10-11T22:58:46.102Z,11.20
2022-10-11T23:01:15.878Z,11.30
2022-10-11T23:03:48.719Z,11.40
2022-10-11T23:06:17.851Z,11.60
2022-10-11T23:08:45.093Z,11.60
2022-10-11T23:11:13.089Z,11.70
2022-10-11T23:13:40.179Z,11.70
2022-10-11T23:16:09.877Z,11.80
2022-10-11T23:18:37.592Z,11.80
2022-10-11T23:21:07.712Z,11.80
2022-10-11T23:23:37.875Z,11.80
2022-10-11T23:26:08.884Z,11.90
2022-10-11T23:28:37.192Z,12.00
2022-10-11T23:31:12.734Z,12.10
2022-10-11T23:33:41.211Z,12.10
2022-10-11T23:36:17.856Z,12.10
2022-10-11T23:38:51.829Z,12.00
2022-10-11T23:41:20.641Z,12.10
2022-10-11T23:43:48.739Z,12.10
2022-10-11T23:46:17.460Z,12.20
2022-10-11T23:48:47.364Z,12.20
2022-10-11T23:51:16.383Z,12.20
2022-10-11T23:53:44.348Z,12.20
2022-10-11T23:56:11.823Z,12.20
2022-10-11T23:58:41.815Z,12.20
